Latest Weather Observations for Mount Crawford

IDS60901

Issued at 1:45 am CST Wednesday 24 September 2014 (issued every 10 minutes, with the page automatically refreshed every 10 minutes)

About weather observations | Map of Adelaide area stations | Latest observations for Adelaide area | Other Formats
Station Details ID: 023878 Name: MT CRAWFORD AWS Lat: -34.73 Lon: 138.93 Height: 525.0 m
Data from the previous 72 hours. | See also: Recent months at Mount Crawford
Date/Time
CST
Tmp

°C
App
Tmp
°C
Dew
Point
°C
Rel
Hum
%
Delta-T

°C
Wind Press
QNH
hPa
Press
MSL
hPa
Rain
since
9 am
mm
Dir
 
Spd
km/h
Gust
km/h
Spd
kts
Gust
kts
24/01:30am 13.4 10.6 10.0 80 1.8 N 15 20 8 11 1015.8 1015.6 0.8
24/01:00am 13.6 9.4 9.8 78 2.0 N 22 30 12 16 1016.1 1015.9 0.8
24/12:30am 13.7 10.7 10.5 81 1.7 N 17 24 9 13 1016.5 1016.3 0.8
24/12:00am 13.5 9.2 10.7 83 1.5 NNE 24 33 13 18 1016.5 1016.3 0.8
 
Date/Time
CST
Tmp

°C
App
Tmp
°C
Dew
Point
°C
Rel
Hum
%
Delta-T

°C
Wind Press
QNH
hPa
Press
MSL
hPa
Rain
since
9 am
mm
Dir
 
Spd
km/h
Gust
km/h
Spd
kts
Gust
kts
23/11:30pm 13.0 8.7 10.9 87 1.1 NE 24 30 13 16 1016.5 1016.3 0.8
23/11:00pm 13.6 9.2 10.4 81 1.7 NE 24 32 13 17 1016.5 1016.3 0.8
23/10:30pm 13.8 9.3 10.0 78 2.0 ENE 24 32 13 17 1016.4 1016.2 0.8
23/10:00pm 13.4 9.4 10.6 83 1.5 ENE 22 28 12 15 1016.6 1016.4 0.8
23/09:30pm 14.2 9.5 9.4 73 2.5 NE 24 33 13 18 1017.3 1017.1 0.8
23/09:00pm 15.4 11.3 8.6 64 3.5 NNE 20 28 11 15 1017.6 1017.4 0.8
23/08:30pm 15.2 11.7 8.9 66 3.3 NE 17 24 9 13 1017.6 1017.4 0.8
23/08:00pm 15.7 13.6 8.4 62 3.8 NNE 9 20 5 11 1017.7 1017.5 0.8
23/07:30pm 16.2 13.3 8.2 59 4.2 NNW 13 17 7 9 1017.4 1017.2 0.6
23/07:00pm 15.8 9.9 7.3 57 4.3 ENE 28 41 15 22 1016.2 1016.0 0.6
23/06:30pm 15.9 10.4 7.4 57 4.3 ENE 26 35 14 19 1016.0 1015.8 0.6
23/06:00pm 16.0 9.8 7.7 58 4.3 ENE 30 39 16 21 1015.9 1015.7 0.6
23/05:30pm 16.3 11.5 9.0 62 3.9 ENE 24 39 13 21 1016.2 1016.0 0.6
23/05:00pm 16.0 10.0 8.7 62 3.8 ENE 30 39 16 21 1016.3 1016.1 0.6
23/04:30pm 15.7 8.7 9.8 68 3.2 NE 37 50 20 27 1016.4 1016.2 0.6
23/04:21pm 17.4 11.8 8.8 57 4.6 NE 28 50 15 27 1016.1 1015.9 0.4
23/04:00pm 17.7 13.2 8.6 55 4.8 NE 22 33 12 18 1016.3 1016.1 0.4
23/03:30pm 19.5 15.2 7.9 47 6.1 NE 20 30 11 16 1016.7 1016.5 0.0
23/03:00pm 20.4 15.6 8.7 47 6.3 NNE 24 33 13 18 1017.3 1017.1 0.0
23/02:30pm 19.7 13.5 7.8 46 6.3 NNE 30 41 16 22 1017.5 1017.3 0.0
23/02:00pm 19.5 12.8 7.3 45 6.4 NE 32 48 17 26 1017.8 1017.6 0.0
23/01:52pm 20.6 14.9 8.3 45 6.6 NE 28 48 15 26 1017.7 1017.5 0.0
23/01:30pm 20.4 13.9 9.0 48 6.2 NNE 33 46 18 25 1018.1 1017.9 0.0
23/01:22pm 19.3 13.3 7.1 45 6.3 NNE 28 46 15 25 1018.1 1017.9 0.0
23/01:00pm 19.5 13.4 8.2 48 6.0 NNE 30 39 16 21 1018.5 1018.3 0.0
23/12:30pm 18.9 12.6 8.8 52 5.4 NE 32 50 17 27 1018.6 1018.4 0.0
23/12:22pm 19.1 12.8 9.0 52 5.4 NNE 32 50 17 27 1018.7 1018.6 0.0
23/12:00pm 20.0 14.2 10.7 55 5.2 NNE 32 44 17 24 1019.0 1018.9 0.0
23/11:30am 18.5 11.7 9.3 55 4.9 NE 35 54 19 29 1019.7 1019.5 0.0
23/11:00am 17.7 11.4 8.8 56 4.7 NE 32 50 17 27 1020.0 1019.8 0.0
23/10:57am 18.1 12.2 8.9 55 4.9 NE 30 48 16 26 1019.9 1019.7 0.0
23/10:30am 17.9 12.4 9.3 57 4.6 NNE 28 43 15 23 1020.3 1020.2 0.0
23/10:06am 17.2 10.8 8.6 57 4.5 NNE 32 50 17 27 1020.6 1020.5 0.0
23/10:00am 17.4 11.2 10.1 62 4.0 NNE 33 50 18 27 1020.6 1020.5 0.0
23/09:30am 17.0 10.7 8.9 59 4.3 NNE 32 46 17 25 1021.0 1020.9 0.0
23/09:00am 16.8 11.2 8.8 59 4.2 NE 28 39 15 21 1021.4 1021.2 0.0
23/08:30am 16.2 10.3 9.2 63 3.7 NNE 30 43 16 23 1021.7 1021.5 0.0
23/08:00am 16.2 11.5 9.2 63 3.7 NNE 24 37 13 20 1021.9 1021.7 0.0
23/07:30am 15.3 9.6 8.5 64 3.5 NNE 28 39 15 21 1021.8 1021.6 0.0
23/07:00am 14.7 8.1 7.7 63 3.6 NNE 32 43 17 23 1021.6 1021.4 0.0
23/06:30am 14.3 7.4 7.4 63 3.5 NNE 33 41 18 22 1021.5 1021.3 0.0
23/06:00am 14.6 7.7 7.2 61 3.7 NNE 33 43 18 23 1021.4 1021.2 0.0
23/05:30am 14.6 8.2 6.9 60 3.9 NNE 30 39 16 21 1021.4 1021.2 0.0
23/05:00am 14.9 7.7 6.0 55 4.4 NNE 33 44 18 24 1021.4 1021.2 0.0
23/04:30am 14.9 8.1 4.9 51 4.8 NNE 30 41 16 22 1021.3 1021.1 0.0
23/04:00am 15.2 8.2 4.0 47 5.3 NNE 30 43 16 23 1021.3 1021.1 0.0
23/03:30am 15.3 8.6 3.5 45 5.5 NNE 28 41 15 22 1021.3 1021.1 0.0
23/03:00am 15.2 8.0 0.6 37 6.4 NE 28 39 15 21 1021.4 1021.2 0.0
23/02:30am 15.9 7.6 -1.6 30 7.4 NE 32 46 17 25 1021.5 1021.3 0.0
23/02:00am 15.8 7.0 -1.3 31 7.3 NE 35 46 19 25 1021.5 1021.3 0.0
23/01:30am 15.9 7.6 -1.6 30 7.4 NE 32 48 17 26 1021.9 1021.7 0.0
23/01:00am 16.7 8.3 -2.4 27 8.0 NNE 32 43 17 23 1022.3 1022.2 0.0
23/12:30am 16.9 8.5 -2.7 26 8.2 NE 32 43 17 23 1022.5 1022.4 0.0
23/12:04am 17.3 8.3 -2.4 26 8.3 NE 35 57 19 31 1022.4 1022.3 0.0
23/12:00am 16.9 8.0 -2.2 27 8.0 NE 35 48 19 26 1022.5 1022.4 0.0
 
Date/Time
CST
Tmp

°C
App
Tmp
°C
Dew
Point
°C
Rel
Hum
%
Delta-T

°C
Wind Press
QNH
hPa
Press
MSL
hPa
Rain
since
9 am
mm
Dir
 
Spd
km/h
Gust
km/h
Spd
kts
Gust
kts
22/11:30pm 17.2 7.9 -2.4 26 8.2 NE 37 57 20 31 1022.6 1022.5 0.0
22/11:28pm 16.4 7.4 -2.6 27 7.9 NE 35 54 19 29 1022.6 1022.5 0.0
22/11:00pm 16.0 7.3 -3.5 26 8.0 NE 33 43 18 23 1022.8 1022.7 0.0
22/10:46pm 16.2 8.0 -3.8 25 8.1 NE 30 48 16 26 1022.9 1022.8 0.0
22/10:30pm 15.8 7.2 -4.2 25 8.0 ENE 32 37 17 20 1022.9 1022.8 0.0
22/10:00pm 15.8 7.9 -4.7 24 8.1 ENE 28 35 15 19 1023.0 1022.9 0.0
22/09:30pm 15.8 8.3 -4.7 24 8.1 E 26 32 14 17 1023.2 1023.0 0.0
22/09:00pm 16.1 8.9 -5.0 23 8.3 E 24 30 13 16 1023.2 1023.0 0.0
22/08:30pm 16.6 9.1 -4.6 23 8.5 E 26 30 14 16 1023.0 1022.9 0.0
22/08:00pm 16.8 9.7 -4.4 23 8.6 ENE 24 28 13 15 1023.0 1022.9 0.0
22/07:30pm 17.1 9.7 -3.6 24 8.5 ENE 26 32 14 17 1022.8 1022.7 0.0
22/07:00pm 17.7 10.3 -3.7 23 8.8 ENE 26 30 14 16 1022.6 1022.5 0.0
22/06:30pm 18.3 11.6 -4.4 21 9.3 ENE 22 28 12 15 1022.4 1022.3 0.0
22/06:00pm 18.4 12.1 -3.7 22 9.2 ENE 20 26 11 14 1022.1 1022.0 0.0
22/05:30pm 19.0 13.1 -2.6 23 9.2 ENE 19 22 10 12 1022.1 1022.0 0.0
22/05:00pm 19.3 13.5 -1.2 25 9.0 ENE 19 24 10 13 1022.0 1021.9 0.0
22/04:30pm 20.3 14.1 -3.4 20 10.1 NE 20 32 11 17 1021.8 1021.6 0.0
22/04:00pm 20.7 14.1 -3.0 20 10.2 NE 22 30 12 16 1021.8 1021.6 0.0
22/03:30pm 21.0 14.4 -0.3 24 9.7 NE 24 33 13 18 1022.2 1022.1 0.0
22/03:00pm 20.8 15.0 -1.7 22 9.9 NE 19 30 10 16 1022.3 1022.2 0.0
22/02:30pm 20.8 14.3 -2.3 21 10.1 N 22 32 12 17 1022.6 1022.5 0.0
22/02:00pm 20.7 14.1 -3.7 19 10.4 NNE 22 32 12 17 1022.8 1022.7 0.0
22/01:30pm 20.1 13.7 -4.9 18 10.3 NNE 20 24 11 13 1023.2 1023.0 0.0
22/01:00pm 20.2 13.2 -0.4 25 9.3 NE 26 35 14 19 1023.4 1023.2 0.0
22/12:30pm 20.2 13.6 -0.4 25 9.3 NNE 24 30 13 16 1023.8 1023.7 0.0
22/12:00pm 19.3 13.4 -0.7 26 8.9 NNE 20 30 11 16 1024.4 1024.3 0.0
22/11:30am 19.5 14.0 1.9 31 8.2 NNE 20 30 11 16 1024.7 1024.6 0.0
22/11:00am 18.7 13.2 0.3 29 8.3 NNE 19 28 10 15 1025.3 1025.2 0.0
22/10:30am 18.6 13.1 0.7 30 8.1 NE 19 26 10 14 1025.5 1025.4 0.0
22/10:00am 17.5 11.6 1.9 35 7.2 NE 22 30 12 16 1025.9 1025.8 0.0
22/09:30am 16.3 9.7 -0.4 32 7.3 NNE 24 33 13 18 1026.2 1026.1 0.0
22/09:00am 15.6 10.1 0.6 36 6.6 N 19 24 10 13 1026.2 1026.1 0.0
22/08:30am 15.1 9.7 1.3 39 6.1 NE 19 22 10 12 1026.4 1026.3 0.0
22/08:00am 14.0 8.4 1.0 41 5.7 NE 20 28 11 15 1026.3 1026.2 0.0
22/07:30am 13.2 6.6 -0.1 40 5.6 NE 24 30 13 16 1026.2 1026.1 0.0
22/07:00am 12.1 6.2 -0.7 41 5.3 NE 20 24 11 13 1026.1 1026.0 0.0
22/06:30am 11.6 5.6 -1.5 40 5.3 NE 20 28 11 15 1026.1 1026.0 0.0
22/06:00am 11.3 4.9 -1.5 41 5.2 NE 22 28 12 15 1026.0 1025.9 0.0
22/05:30am 11.9 5.8 -2.3 37 5.7 NE 20 26 11 14 1025.8 1025.7 0.0
22/05:00am 11.1 5.2 -2.3 39 5.3 NE 19 24 10 13 1025.6 1025.5 0.0
22/04:30am 10.9 4.8 -2.1 40 5.2 NE 20 24 11 13 1025.5 1025.4 0.0
22/04:00am 10.4 4.9 -2.3 41 5.0 NE 17 22 9 12 1025.5 1025.4 0.0
22/03:30am 11.6 4.8 -2.2 38 5.5 ENE 24 28 13 15 1025.4 1025.3 0.0
22/03:00am 11.1 4.4 -1.3 42 5.0 ENE 24 26 13 14 1025.6 1025.5 0.0
22/02:30am 10.5 4.3 -0.6 46 4.5 ENE 22 26 12 14 1025.7 1025.6 0.0
22/02:00am 10.7 4.1 -0.4 46 4.6 ENE 24 30 13 16 1026.0 1025.9 0.0
22/01:30am 9.9 3.0 0.0 50 4.1 E 26 30 14 16 1026.2 1026.1 0.0
22/01:00am 10.4 3.0 -0.4 47 4.5 E 28 32 15 17 1026.4 1026.3 0.0
22/12:30am 10.4 3.0 -0.4 47 4.4 E 28 35 15 19 1026.4 1026.3 0.0
22/12:00am 10.7 3.0 -0.4 46 4.6 E 30 37 16 20 1026.4 1026.3 0.0
 
Date/Time
CST
Tmp

°C
App
Tmp
°C
Dew
Point
°C
Rel
Hum
%
Delta-T

°C
Wind Press
QNH
hPa
Press
MSL
hPa
Rain
since
9 am
mm
Dir
 
Spd
km/h
Gust
km/h
Spd
kts
Gust
kts
21/11:30pm 11.2 4.2 -0.3 45 4.8 E 26 30 14 16 1026.7 1026.6 0.0
21/11:00pm 11.4 5.1 -0.7 43 5.0 E 22 28 12 15 1026.7 1026.6 0.0
21/10:30pm 11.7 5.9 -0.4 43 5.0 E 20 24 11 13 1027.1 1027.1 0.0
21/10:00pm 12.6 6.7 -0.6 40 5.5 E 20 24 11 13 1027.6 1027.5 0.0
21/09:30pm 12.8 7.1 -1.1 38 5.7 E 19 20 10 11 1027.7 1027.6 0.0
21/09:00pm 12.4 6.6 -1.5 38 5.7 E 19 22 10 12 1027.6 1027.5 0.0
21/08:30pm 13.2 7.7 -1.9 35 6.2 E 17 20 9 11 1027.7 1027.6 0.0
21/08:00pm 13.5 8.4 -1.6 35 6.3 ESE 15 19 8 10 1027.8 1027.7 0.0
21/07:30pm 13.8 8.7 -1.8 34 6.4 ESE 15 17 8 9 1027.6 1027.5 0.0
21/07:00pm 13.7 8.6 -2.3 33 6.5 ESE 15 17 8 9 1027.3 1027.2 0.0
21/06:30pm 14.2 9.6 -1.0 35 6.4 E 13 17 7 9 1027.1 1027.1 0.0
21/06:00pm 15.1 10.9 -0.6 34 6.7 E 11 15 6 8 1027.1 1027.1 0.0
21/05:30pm 16.2 12.9 -1.4 30 7.5 E 6 7 3 4 1027.3 1027.2 0.0
21/05:00pm 16.4 11.8 -1.2 30 7.6 ENE 13 17 7 9 1027.3 1027.2 0.0
21/04:30pm 16.9 12.3 1.4 35 7.0 E 15 22 8 12 1026.8 1026.8 0.0
21/04:00pm 17.1 12.0 0.7 33 7.4 E 17 22 9 12 1026.6 1026.5 0.0
21/03:30pm 17.4 12.5 2.2 36 7.0 ENE 17 22 9 12 1026.9 1026.9 0.0
21/03:00pm 17.3 12.4 1.7 35 7.1 ENE 17 24 9 13 1027.4 1027.3 0.0
21/02:30pm 17.4 12.7 3.3 39 6.7 ENE 17 26 9 14 1027.6 1027.5 0.0
21/02:00pm 17.3 12.8 2.1 36 7.1 ENE 15 20 8 11 1027.9 1027.8 0.0
21/01:30pm 16.8 12.5 0.9 34 7.1 NE 13 19 7 10 1028.3 1028.2 0.0
21/01:00pm 16.9 13.1 1.8 36 6.9 ENE 11 17 6 9 1028.7 1028.7 0.0
21/12:30pm 16.5 11.8 2.9 40 6.3 NE 17 24 9 13 1029.0 1029.0 0.0
21/12:00pm 16.1 12.5 2.9 41 6.1 E 11 20 6 11 1029.7 1029.6 0.0
21/11:30am 16.3 12.5 2.0 38 6.5 ENE 11 19 6 10 1029.8 1029.7 0.0
21/11:00am 15.9 12.2 4.6 47 5.5 ENE 13 20 7 11 1029.9 1029.8 0.0
21/10:30am 15.0 10.4 3.8 47 5.2 ENE 17 24 9 13 1030.1 1030.1 0.0
21/10:00am 15.1 11.0 6.1 55 4.5 ENE 17 24 9 13 1030.3 1030.3 0.0
21/09:30am 14.2 10.4 5.6 56 4.2 ENE 15 20 8 11 1030.3 1030.3 0.0
21/09:00am 13.2 8.6 3.6 52 4.4 NE 17 20 9 11 1030.2 1030.2 0.0
21/08:30am 12.0 6.8 3.5 56 3.9 ENE 20 26 11 14 1029.8 1029.7 0.0
21/08:00am 11.0 5.7 2.8 57 3.7 ENE 20 28 11 15 1029.7 1029.6 0.0
21/07:30am 10.0 4.9 3.3 63 3.0 ENE 19 28 10 15 1029.4 1029.3 0.0
21/07:00am 9.1 3.9 2.7 64 2.8 ENE 19 26 10 14 1029.3 1029.2 0.0
21/06:30am 8.1 2.0 2.6 68 2.4 E 24 30 13 16 1028.9 1028.9 0.0
21/06:00am 7.4 1.9 2.1 69 2.2 E 20 28 11 15 1028.5 1028.5 0.0
21/05:30am 7.6 1.8 2.1 68 2.3 E 22 28 12 15 1028.4 1028.3 0.0
21/05:00am 7.9 2.1 2.2 67 2.4 E 22 30 12 16 1027.8 1027.7 0.0
21/04:30am 7.9 2.5 2.4 68 2.3 E 20 26 11 14 1027.5 1027.4 0.0
21/04:00am 7.8 1.7 2.5 69 2.3 E 24 30 13 16 1027.3 1027.2 0.0
21/03:30am 7.8 0.9 2.5 69 2.3 E 28 35 15 19 1027.0 1027.0 0.0
21/03:00am 8.2 1.2 2.2 66 2.6 E 28 37 15 20 1027.0 1027.0 0.0
21/02:30am 8.0 1.4 2.0 66 2.5 E 26 35 14 19 1027.1 1027.1 0.0
21/02:00am 7.6 1.4 2.1 68 2.3 E 24 28 13 15 1027.6 1027.5 0.0

Latest Capital City Observations: Canberra | Sydney | Melbourne | Brisbane | Adelaide | Perth | Hobart | Darwin

Other Formats:

Comma delimited format used in spreadsheet applications
http://www.bom.gov.au/fwo/IDS60901/IDS60901.94678.axf

JavaScript Object Notation format (JSON) in row-major order
http://www.bom.gov.au/fwo/IDS60901/IDS60901.94678.json